Time,TemperatureF,DewpointF,PressureIn,WindDirection,WindDirectionDegrees,WindSpeedMPH,WindSpeedGustMPH,Humidity,HourlyPrecipIn,Conditions,Clouds,dailyrainin,SoftwareType,DateUTC
2013-04-03 00:00:00,27.3,18.5,30.09,West,268,1.0,1.0,69,0.00,,,0.04,Wunderground v.1.15,2013-04-03 04:00:00,
2013-04-03 00:05:00,27.2,18.4,30.09,West,268,0.0,11.0,69,0.00,,,0.00,Wunderground v.1.15,2013-04-03 04:05:00,
2013-04-03 00:10:00,27.1,18.3,30.09,West,268,0.0,11.0,69,0.00,,,0.00,Wunderground v.1.15,2013-04-03 04:10:00,
2013-04-03 00:15:00,26.9,18.4,30.09,WNW,295,0.0,11.0,70,0.00,,,0.00,Wunderground v.1.15,2013-04-03 04:15:00,
2013-04-03 00:20:00,27.2,18.7,30.09,West,263,1.0,11.0,70,0.00,,,0.00,Wunderground v.1.15,2013-04-03 04:20:00,
2013-04-03 00:25:00,27.4,18.6,30.09,NW,315,2.0,11.0,69,0.00,,,0.00,Wunderground v.1.15,2013-04-03 04:25:00,
2013-04-03 00:35:00,27.6,18.8,30.09,West,261,2.0,11.0,69,0.00,,,0.00,Wunderground v.1.15,2013-04-03 04:35:00,
2013-04-03 00:40:00,27.5,18.3,30.09,WSW,255,1.0,11.0,68,0.00,,,0.00,Wunderground v.1.15,2013-04-03 04:40:00,
2013-04-03 00:45:00,27.4,18.2,30.09,West,262,1.0,11.0,68,0.00,,,0.00,Wunderground v.1.15,2013-04-03 04:45:00,
2013-04-03 00:50:00,27.4,18.2,30.09,West,259,1.0,1.0,68,0.00,,,0.00,Wunderground v.1.15,2013-04-03 04:50:00,
2013-04-03 00:55:00,27.6,18.1,30.09,WSW,258,2.0,2.0,67,0.00,,,0.00,Wunderground v.1.15,2013-04-03 04:55:00,
2013-04-03 01:00:00,28.0,18.5,30.09,WNW,298,3.0,11.0,67,0.00,,,0.00,Wunderground v.1.15,2013-04-03 05:00:00,
2013-04-03 09:00:00,28.7,17.3,30.18,West,269,2.0,2.0,62,0.00,,,0.00,Wunderground v.1.15,2013-04-03 13:00:00,
2013-04-03 09:05:00,28.8,17.0,30.19,WNW,290,3.0,4.0,61,0.00,,,0.00,Wunderground v.1.15,2013-04-03 13:05:00,
2013-04-03 09:10:00,28.6,17.2,30.18,West,274,4.0,5.0,62,0.00,,,0.00,Wunderground v.1.15,2013-04-03 13:10:00,
2013-04-03 09:15:00,28.9,17.1,30.18,WNW,300,4.0,5.0,61,0.00,,,0.00,Wunderground v.1.15,2013-04-03 13:15:00,
2013-04-03 09:20:00,29.2,17.0,30.18,West,267,3.0,5.0,60,0.00,,,0.00,Wunderground v.1.15,2013-04-03 13:20:00,
2013-04-03 09:25:00,29.4,18.0,30.19,West,261,2.0,5.0,62,0.00,,,0.00,Wunderground v.1.15,2013-04-03 13:25:00,
2013-04-03 09:35:00,29.1,16.9,30.19,NW,321,3.0,6.0,60,0.00,,,0.00,Wunderground v.1.15,2013-04-03 13:35:00,
2013-04-03 09:40:00,29.4,17.6,30.19,WNW,284,3.0,3.0,61,0.00,,,0.00,Wunderground v.1.15,2013-04-03 13:40:00,
2013-04-03 09:45:00,29.7,17.5,30.18,West,263,3.0,6.0,60,0.00,,,0.00,Wunderground v.1.15,2013-04-03 13:45:00,
2013-04-03 09:50:00,30.7,18.4,30.19,WNW,286,2.0,2.0,60,0.00,,,0.00,Wunderground v.1.15,2013-04-03 13:50:00,
2013-04-03 09:55:00,30.6,18.7,30.19,SW,232,2.0,11.0,61,0.00,,,0.00,Wunderground v.1.15,2013-04-03 13:55:00,
2013-04-03 10:00:00,30.1,18.6,30.19,West,276,2.0,11.0,62,0.00,,,0.00,Wunderground v.1.15,2013-04-03 14:00:00,
2013-04-03 10:05:00,29.3,18.3,30.19,NW,307,3.0,11.0,63,0.00,,,0.00,Wunderground v.1.15,2013-04-03 14:05:00,
2013-04-03 10:15:00,28.7,18.4,30.19,WSW,242,3.0,11.0,65,0.00,,,0.00,Wunderground v.1.15,2013-04-03 14:15:00,
2013-04-03 10:20:00,28.8,18.5,30.19,NW,319,3.0,11.0,65,0.00,,,0.00,Wunderground v.1.15,2013-04-03 14:20:00,
2013-04-03 10:25:00,28.8,18.1,30.20,WNW,300,3.0,11.0,64,0.00,,,0.00,Wunderground v.1.15,2013-04-03 14:25:00,
2013-04-03 10:30:00,29.5,18.8,30.20,West,281,3.0,11.0,64,0.00,,,0.00,Wunderground v.1.15,2013-04-03 14:30:00,
2013-04-03 10:35:00,29.6,18.9,30.20,NW,306,3.0,11.0,64,0.00,,,0.00,Wunderground v.1.15,2013-04-03 14:35:00,
2013-04-03 10:45:00,29.8,19.8,30.20,West,273,3.0,11.0,66,0.00,,,0.00,Wunderground v.1.15,2013-04-03 14:45:00,
2013-04-03 10:50:00,30.7,20.0,30.20,WNW,301,3.0,11.0,64,0.00,,,0.00,Wunderground v.1.15,2013-04-03 14:50:00,
2013-04-03 11:00:00,30.1,19.0,30.20,WSW,248,2.0,11.0,63,0.00,,,0.00,Wunderground v.1.15,2013-04-03 15:00:00,
2013-04-03 11:05:00,29.5,18.8,30.20,NW,311,4.0,11.0,64,0.00,,,0.00,Wunderground v.1.15,2013-04-03 15:05:00,
2013-04-03 11:10:00,30.5,20.1,30.20,West,260,4.0,11.0,65,0.00,,,0.00,Wunderground v.1.15,2013-04-03 15:10:00,
2013-04-03 11:15:00,30.9,19.8,30.20,West,278,3.0,11.0,63,0.00,,,0.00,Wunderground v.1.15,2013-04-03 15:15:00,
2013-04-03 11:20:00,31.2,19.7,30.20,West,272,3.0,3.0,62,0.00,,,0.00,Wunderground v.1.15,2013-04-03 15:20:00,
2013-04-03 11:30:00,31.5,19.2,30.21,West,263,4.0,11.0,60,0.00,,,0.00,Wunderground v.1.15,2013-04-03 15:30:00,
2013-04-03 11:35:00,31.0,18.3,30.21,West,278,4.0,11.0,59,0.00,,,0.00,Wunderground v.1.15,2013-04-03 15:35:00,
2013-04-03 15:00:00,35.1,16.4,30.24,NW,305,5.0,5.0,46,0.00,,,0.00,Wunderground v.1.15,2013-04-03 19:00:00,
2013-04-03 15:10:00,35.7,15.4,30.25,WNW,290,5.0,5.0,43,0.00,,,0.00,Wunderground v.1.15,2013-04-03 19:10:00,
2013-04-03 15:15:00,34.6,15.4,30.25,WNW,295,6.0,6.0,45,0.00,,,0.00,Wunderground v.1.15,2013-04-03 19:15:00,
2013-04-03 15:20:00,36.5,16.6,30.25,SW,236,5.0,5.0,44,0.00,,,0.00,Wunderground v.1.15,2013-04-03 19:20:00,
2013-04-03 15:25:00,36.1,16.3,30.25,West,273,5.0,5.0,44,0.00,,,0.00,Wunderground v.1.15,2013-04-03 19:25:00,
2013-04-03 15:30:00,36.8,16.9,30.25,WSW,258,4.0,4.0,44,0.00,,,0.00,Wunderground v.1.15,2013-04-03 19:30:00,
2013-04-03 15:35:00,36.3,15.9,30.25,WNW,294,4.0,8.0,43,0.00,,,0.00,Wunderground v.1.15,2013-04-03 19:35:00,
2013-04-03 15:45:00,37.2,17.8,30.25,WNW,294,5.0,19.0,45,0.00,,,0.00,Wunderground v.1.15,2013-04-03 19:45:00,
2013-04-03 15:50:00,36.8,16.4,30.25,WNW,290,5.0,5.0,43,0.00,,,0.00,Wunderground v.1.15,2013-04-03 19:50:00,
2013-04-03 15:55:00,36.4,16.0,30.25,WSW,252,5.0,19.0,43,0.00,,,0.00,Wunderground v.1.15,2013-04-03 19:55:00,
2013-04-03 16:00:00,36.4,16.5,30.25,WNW,296,5.0,5.0,44,0.00,,,0.00,Wunderground v.1.15,2013-04-03 20:00:00,
2013-04-03 16:10:00,36.4,14.9,30.25,WSW,242,5.0,19.0,41,0.00,,,0.00,Wunderground v.1.15,2013-04-03 20:10:00,
2013-04-03 16:15:00,36.6,16.2,30.25,WNW,284,5.0,19.0,43,0.00,,,0.00,Wunderground v.1.15,2013-04-03 20:15:00,
2013-04-03 16:20:00,36.8,15.8,30.25,SW,217,5.0,5.0,42,0.00,,,0.00,Wunderground v.1.15,2013-04-03 20:20:00,
2013-04-03 16:25:00,36.4,16.0,30.25,WSW,247,5.0,9.0,43,0.00,,,0.00,Wunderground v.1.15,2013-04-03 20:25:00,
2013-04-03 16:30:00,35.9,14.5,30.26,WSW,243,6.0,19.0,41,0.00,,,0.00,Wunderground v.1.15,2013-04-03 20:30:00,
2013-04-03 16:40:00,36.7,15.7,30.26,WNW,287,6.0,6.0,42,0.00,,,0.00,Wunderground v.1.15,2013-04-03 20:40:00,
2013-04-03 16:45:00,36.1,14.6,30.26,NW,312,6.0,19.0,41,0.00,,,0.00,Wunderground v.1.15,2013-04-03 20:45:00,
2013-04-03 16:50:00,36.9,15.9,30.25,WNW,284,5.0,19.0,42,0.00,,,0.00,Wunderground v.1.15,2013-04-03 20:50:00,
2013-04-03 16:55:00,36.5,15.6,30.26,West,270,4.0,19.0,42,0.00,,,0.00,Wunderground v.1.15,2013-04-03 20:55:00,
2013-04-03 17:00:00,35.9,15.0,30.25,West,275,5.0,19.0,42,0.00,,,0.00,Wunderground v.1.15,2013-04-03 21:00:00,
2013-04-03 17:10:00,35.6,13.6,30.26,WNW,300,6.0,6.0,40,0.00,,,0.00,Wunderground v.1.15,2013-04-03 21:10:00,
2013-04-03 17:15:00,36.1,14.6,30.26,West,270,5.0,19.0,41,0.00,,,0.00,Wunderground v.1.15,2013-04-03 21:15:00,
2013-04-03 17:50:00,35.9,14.5,30.26,NW,310,4.0,4.0,41,0.00,,,0.00,Wunderground v.1.15,2013-04-03 21:50:00,
2013-04-03 18:00:00,35.6,14.2,30.26,West,275,4.0,19.0,41,0.00,,,0.00,Wunderground v.1.15,2013-04-03 22:00:00,
2013-04-03 18:10:00,35.3,15.0,30.27,West,277,4.0,4.0,43,0.00,,,0.00,Wunderground v.1.15,2013-04-03 22:10:00,
2013-04-03 18:15:00,35.6,14.7,30.27,NW,306,4.0,19.0,42,0.00,,,0.00,Wunderground v.1.15,2013-04-03 22:15:00,
2013-04-03 18:20:00,35.3,15.0,30.27,West,274,3.0,19.0,43,0.00,,,0.00,Wunderground v.1.15,2013-04-03 22:20:00,
2013-04-03 18:25:00,34.8,14.5,30.27,NW,304,4.0,19.0,43,0.00,,,0.00,Wunderground v.1.15,2013-04-03 22:25:00,
2013-04-03 18:35:00,34.7,15.0,30.27,WNW,288,3.0,19.0,44,0.00,,,0.00,Wunderground v.1.15,2013-04-03 22:35:00,
2013-04-03 18:40:00,35.0,15.3,30.28,West,267,2.0,2.0,44,0.00,,,0.00,Wunderground v.1.15,2013-04-03 22:40:00,
2013-04-03 18:45:00,34.4,14.7,30.28,West,277,3.0,3.0,44,0.00,,,0.00,Wunderground v.1.15,2013-04-03 22:45:00,
2013-04-03 18:50:00,34.1,14.9,30.29,West,268,4.0,19.0,45,0.00,,,0.00,Wunderground v.1.15,2013-04-03 22:50:00,
2013-04-03 18:55:00,33.7,14.6,30.29,NW,306,3.0,19.0,45,0.00,,,0.00,Wunderground v.1.15,2013-04-03 22:55:00,
2013-04-03 19:00:00,33.3,14.2,30.29,WNW,283,4.0,4.0,45,0.00,,,0.00,Wunderground v.1.15,2013-04-03 23:00:00,
2013-04-03 19:05:00,33.1,14.5,30.30,West,272,3.0,19.0,46,0.00,,,0.00,Wunderground v.1.15,2013-04-03 23:05:00,
2013-04-03 19:10:00,32.9,14.4,30.29,West,261,3.0,3.0,46,0.00,,,0.00,Wunderground v.1.15,2013-04-03 23:10:00,
2013-04-03 19:15:00,32.7,14.7,30.30,WSW,250,3.0,19.0,47,0.00,,,0.00,Wunderground v.1.15,2013-04-03 23:15:00,
2013-04-03 19:25:00,32.4,14.9,30.30,WSW,258,2.0,19.0,48,0.00,,,0.00,Wunderground v.1.15,2013-04-03 23:25:00,
2013-04-03 19:30:00,32.2,14.2,30.30,West,275,3.0,19.0,47,0.00,,,0.00,Wunderground v.1.15,2013-04-03 23:30:00,
2013-04-03 19:35:00,32.1,14.1,30.31,NW,319,4.0,19.0,47,0.00,,,0.00,Wunderground v.1.15,2013-04-03 23:35:00,
2013-04-03 19:40:00,31.9,13.9,30.31,WNW,286,4.0,19.0,47,0.00,,,0.00,Wunderground v.1.15,2013-04-03 23:40:00,
2013-04-03 19:50:00,31.7,14.2,30.31,NW,305,4.0,19.0,48,0.00,,,0.00,Wunderground v.1.15,2013-04-03 23:50:00,
2013-04-03 19:55:00,31.6,14.1,30.31,West,280,3.0,19.0,48,0.00,,,0.00,Wunderground v.1.15,2013-04-03 23:55:00,
2013-04-03 20:00:00,31.5,14.0,30.32,NW,304,3.0,19.0,48,0.00,,,0.00,Wunderground v.1.15,2013-04-04 00:00:00,
2013-04-03 20:05:00,31.3,14.3,30.32,West,274,2.0,19.0,49,0.00,,,0.00,Wunderground v.1.15,2013-04-04 00:05:00,
2013-04-03 20:15:00,31.1,14.1,30.32,NW,309,2.0,19.0,49,0.00,,,0.00,Wunderground v.1.15,2013-04-04 00:15:00,
2013-04-03 20:20:00,31.0,14.5,30.33,WNW,284,2.0,2.0,50,0.00,,,0.00,Wunderground v.1.15,2013-04-04 00:20:00,
2013-04-03 20:25:00,30.9,14.9,30.33,WNW,283,2.0,19.0,51,0.00,,,0.00,Wunderground v.1.15,2013-04-04 00:25:00,
2013-04-03 20:30:00,30.8,14.8,30.34,West,270,2.0,2.0,51,0.00,,,0.00,Wunderground v.1.15,2013-04-04 00:30:00,
2013-04-03 20:35:00,30.7,15.1,30.34,West,273,2.0,19.0,52,0.00,,,0.00,Wunderground v.1.15,2013-04-04 00:35:00,
2013-04-03 20:45:00,30.5,15.4,30.34,West,259,1.0,19.0,53,0.00,,,0.00,Wunderground v.1.15,2013-04-04 00:45:00,
2013-04-03 20:50:00,30.5,15.4,30.34,West,272,2.0,2.0,53,0.00,,,0.00,Wunderground v.1.15,2013-04-04 00:50:00,
2013-04-03 20:55:00,30.4,15.7,30.34,West,277,2.0,4.0,54,0.00,,,0.00,Wunderground v.1.15,2013-04-04 00:55:00,
2013-04-03 21:00:00,30.4,15.7,30.35,WSW,251,2.0,19.0,54,0.00,,,0.00,Wunderground v.1.15,2013-04-04 01:00:00,
2013-04-03 21:05:00,30.3,15.6,30.35,West,280,2.0,19.0,54,0.00,,,0.00,Wunderground v.1.15,2013-04-04 01:05:00,
2013-04-03 21:10:00,30.1,15.9,30.35,West,271,1.0,19.0,55,0.00,,,0.00,Wunderground v.1.15,2013-04-04 01:10:00,
2013-04-03 21:20:00,30.0,15.8,30.35,West,281,2.0,2.0,55,0.00,,,0.00,Wunderground v.1.15,2013-04-04 01:20:00,
2013-04-03 21:25:00,30.1,15.9,30.36,West,268,2.0,4.0,55,0.00,,,0.00,Wunderground v.1.15,2013-04-04 01:25:00,
2013-04-03 21:30:00,30.1,15.4,30.36,West,263,2.0,2.0,54,0.00,,,0.00,Wunderground v.1.15,2013-04-04 01:30:00,
2013-04-03 21:35:00,30.0,15.3,30.35,West,266,2.0,19.0,54,0.00,,,0.00,Wunderground v.1.15,2013-04-04 01:35:00,
2013-04-03 21:45:00,29.8,15.6,30.36,WSW,246,2.0,3.0,55,0.00,,,0.00,Wunderground v.1.15,2013-04-04 01:45:00,
2013-04-03 21:50:00,29.8,15.6,30.36,NW,306,2.0,2.0,55,0.00,,,0.00,Wunderground v.1.15,2013-04-04 01:50:00,
2013-04-03 21:55:00,29.8,15.6,30.36,West,268,2.0,19.0,55,0.00,,,0.00,Wunderground v.1.15,2013-04-04 01:55:00,
2013-04-03 22:00:00,29.8,16.0,30.36,WNW,300,3.0,3.0,56,0.00,,,0.00,Wunderground v.1.15,2013-04-04 02:00:00,
2013-04-03 22:10:00,29.9,16.1,30.36,NW,306,4.0,19.0,56,0.00,,,0.00,Wunderground v.1.15,2013-04-04 02:10:00,
2013-04-03 22:15:00,29.8,16.4,30.36,West,279,3.0,19.0,57,0.00,,,0.00,Wunderground v.1.15,2013-04-04 02:15:00,
2013-04-03 22:20:00,29.7,16.3,30.36,WNW,283,2.0,19.0,57,0.00,,,0.00,Wunderground v.1.15,2013-04-04 02:20:00,
2013-04-03 22:25:00,29.7,16.7,30.36,West,260,3.0,19.0,58,0.00,,,0.00,Wunderground v.1.15,2013-04-04 02:25:00,
2013-04-03 22:30:00,29.7,16.7,30.36,West,279,2.0,2.0,58,0.00,,,0.00,Wunderground v.1.15,2013-04-04 02:30:00,
2013-04-03 22:35:00,29.6,17.0,30.36,West,267,2.0,4.0,59,0.00,,,0.00,Wunderground v.1.15,2013-04-04 02:35:00,
2013-04-03 22:40:00,29.4,17.2,30.36,West,270,1.0,1.0,60,0.00,,,0.00,Wunderground v.1.15,2013-04-04 02:40:00,
2013-04-03 22:50:00,29.3,17.1,30.35,WSW,258,1.0,1.0,60,0.00,,,0.00,Wunderground v.1.15,2013-04-04 02:50:00,
2013-04-03 22:55:00,29.3,17.5,30.35,West,261,1.0,19.0,61,0.00,,,0.00,Wunderground v.1.15,2013-04-04 02:55:00,
2013-04-03 23:00:00,29.2,17.4,30.36,West,265,1.0,1.0,61,0.00,,,0.00,Wunderground v.1.15,2013-04-04 03:00:00,
2013-04-03 23:05:00,28.9,17.1,30.35,West,265,0.0,19.0,61,0.00,,,0.00,Wunderground v.1.15,2013-04-04 03:05:00,
2013-04-03 23:10:00,28.8,17.4,30.35,West,265,0.0,19.0,62,0.00,,,0.00,Wunderground v.1.15,2013-04-04 03:10:00,
2013-04-03 23:15:00,28.5,17.1,30.35,West,265,0.0,19.0,62,0.00,,,0.00,Wunderground v.1.15,2013-04-04 03:15:00,
2013-04-03 23:20:00,28.4,17.0,30.35,West,261,0.0,19.0,62,0.00,,,0.00,Wunderground v.1.15,2013-04-04 03:20:00,
2013-04-03 23:25:00,28.3,16.9,30.35,West,261,0.0,19.0,62,0.00,,,0.00,Wunderground v.1.15,2013-04-04 03:25:00,
2013-04-03 23:35:00,28.0,17.0,30.35,West,261,0.0,19.0,63,0.00,,,0.00,Wunderground v.1.15,2013-04-04 03:35:00,
2013-04-03 23:40:00,27.8,16.8,30.35,West,261,0.0,19.0,63,0.00,,,0.00,Wunderground v.1.15,2013-04-04 03:40:00,
2013-04-03 23:45:00,27.6,17.0,30.35,West,261,0.0,19.0,64,0.00,,,0.00,Wunderground v.1.15,2013-04-04 03:45:00,
2013-04-03 23:55:00,27.2,16.6,30.34,West,261,0.0,19.0,64,0.00,,,0.00,Wunderground v.1.15,2013-04-04 03:55:00,